Time;durP1;ratioP1;P1;durP2;ratioP2;P2;SDS_P1;SDS_P2;PMS_P1;PMS_P2;Temp;Humidity;BMP_temperature;BMP_pressure;BME280_temperature;BME280_humidity;BME280_pressure;Samples;Min_cycle;Max_cycle;Signal;HPM_P1;HPM_P2
2022/03/26 00:00:02;;;;;;;19.88;10.27;;;;;;;12.32;33.67;98265.47;4920719;28;20194;-77
2022/03/26 00:02:28;;;;;;;21.10;10.20;;;;;;;12.35;33.57;98265.03;4934758;28;20582;-76
2022/03/26 00:04:53;;;;;;;18.20;9.73;;;;;;;12.30;33.99;98270.94;4939267;28;20553;-77
2022/03/26 00:07:19;;;;;;;20.38;10.60;;;;;;;12.21;33.86;98266.28;4951515;28;20283;-76
2022/03/26 00:09:44;;;;;;;21.88;10.18;;;;;;;12.26;34.10;98264.56;4923694;28;20172;-76
2022/03/26 00:12:09;;;;;;;21.27;9.82;;;;;;;12.18;33.18;98260.50;4940702;28;20168;-77
2022/03/26 00:14:35;;;;;;;23.42;11.32;;;;;;;12.07;33.98;98266.50;4941613;28;20246;-76
2022/03/26 00:17:00;;;;;;;22.17;9.82;;;;;;;12.04;34.07;98268.78;4934745;28;20595;-76
2022/03/26 00:19:27;;;;;;;19.42;9.95;;;;;;;12.03;34.38;98267.19;4937001;28;20173;-77
2022/03/26 00:21:53;;;;;;;19.88;10.48;;;;;;;12.04;34.27;98274.78;4940554;28;20229;-77
2022/03/26 00:24:18;;;;;;;19.77;10.00;;;;;;;11.89;34.45;98275.22;4919842;28;20199;-76
2022/03/26 00:26:43;;;;;;;21.38;10.80;;;;;;;11.86;34.50;98272.22;4919276;28;20221;-76
2022/03/26 00:29:09;;;;;;;19.33;9.77;;;;;;;11.84;34.78;98276.88;4941630;28;20192;-77
2022/03/26 00:31:38;;;;;;;20.48;10.25;;;;;;;11.62;35.13;98277.44;4939767;28;20192;-77
2022/03/26 00:34:05;;;;;;;22.17;10.48;;;;;;;11.61;35.50;98283.66;4959934;28;20173;-76
2022/03/26 00:36:31;;;;;;;19.83;10.32;;;;;;;11.61;35.26;98289.66;4943696;28;20844;-76
2022/03/26 00:38:56;;;;;;;19.80;9.75;;;;;;;11.53;35.46;98283.97;4926091;28;20272;-77
2022/03/26 00:41:23;;;;;;;20.13;10.13;;;;;;;11.50;35.14;98285.22;4930125;28;20243;-77
2022/03/26 00:43:49;;;;;;;19.63;9.93;;;;;;;11.46;35.85;98285.88;4943683;28;20728;-77
2022/03/26 00:46:15;;;;;;;21.92;11.43;;;;;;;11.38;35.52;98287.78;4943819;28;20168;-77
2022/03/26 00:48:40;;;;;;;18.63;10.07;;;;;;;11.34;35.87;98286.63;4909070;28;20283;-77
2022/03/26 00:51:05;;;;;;;18.90;10.05;;;;;;;11.32;35.82;98282.66;4926956;28;20218;-76
2022/03/26 00:53:31;;;;;;;21.05;10.90;;;;;;;11.32;35.90;98283.44;4928821;28;20296;-76
2022/03/26 00:55:56;;;;;;;18.42;9.57;;;;;;;11.23;36.26;98285.56;4943883;28;20191;-77
2022/03/26 00:58:22;;;;;;;18.35;9.32;;;;;;;11.22;36.01;98275.38;4944393;28;20770;-77
2022/03/26 01:00:47;;;;;;;16.30;9.38;;;;;;;11.27;35.92;98285.13;4926871;28;20254;-76
2022/03/26 01:03:12;;;;;;;21.73;10.90;;;;;;;11.20;35.96;98280.78;4945370;28;20574;-76
2022/03/26 01:05:40;;;;;;;16.52;9.07;;;;;;;11.13;36.13;98279.31;4948220;28;20713;-76
2022/03/26 01:08:06;;;;;;;19.08;10.65;;;;;;;11.01;36.24;98280.03;4947919;28;20406;-78
2022/03/26 01:10:31;;;;;;;18.35;9.10;;;;;;;11.00;36.40;98282.84;4947985;28;20185;-77
2022/03/26 01:12:57;;;;;;;18.20;9.30;;;;;;;11.02;36.38;98278.25;4947799;28;20192;-77
2022/03/26 01:15:22;;;;;;;19.15;9.77;;;;;;;10.90;36.74;98285.19;4933674;28;20187;-77
2022/03/26 01:17:49;;;;;;;18.98;9.32;;;;;;;10.80;37.12;98275.28;4933486;28;20191;-77
2022/03/26 01:20:16;;;;;;;20.38;10.15;;;;;;;10.73;37.23;98274.56;4945154;28;20299;-77
2022/03/26 01:22:42;;;;;;;18.77;9.20;;;;;;;10.62;37.22;98276.88;4946628;28;20200;-77
2022/03/26 01:25:07;;;;;;;18.42;9.18;;;;;;;10.64;37.10;98267.06;4911135;28;20098;-78
2022/03/26 01:27:33;;;;;;;18.98;8.88;;;;;;;10.70;37.29;98270.59;4946512;28;20347;-77
2022/03/26 01:29:58;;;;;;;17.52;9.60;;;;;;;10.68;37.11;98276.00;4948453;28;20274;-77
2022/03/26 01:32:23;;;;;;;19.48;10.15;;;;;;;10.72;37.03;98273.78;4943888;28;20285;-76
2022/03/26 01:34:49;;;;;;;19.77;9.75;;;;;;;10.62;37.28;98271.66;4948314;28;20191;-76
2022/03/26 01:37:16;;;;;;;19.05;10.23;;;;;;;10.60;37.55;98271.09;4947072;28;20294;-76
2022/03/26 01:39:42;;;;;;;20.77;9.68;;;;;;;10.48;37.68;98278.81;4927631;28;20261;-77
2022/03/26 01:42:07;;;;;;;21.83;10.20;;;;;;;10.36;37.96;98270.13;4927760;28;20199;-76
2022/03/26 01:44:33;;;;;;;18.50;8.88;;;;;;;10.35;37.99;98270.34;4948402;28;20611;-77
2022/03/26 01:47:00;;;;;;;17.30;9.10;;;;;;;10.33;37.67;98269.78;4962817;28;20292;-77
2022/03/26 01:49:26;;;;;;;22.40;9.85;;;;;;;10.31;37.80;98267.34;4946581;28;20203;-77
2022/03/26 01:51:52;;;;;;;20.83;9.50;;;;;;;10.42;37.61;98268.50;4925445;28;20181;-77
2022/03/26 01:54:19;;;;;;;21.23;10.13;;;;;;;10.44;37.25;98266.47;4945890;28;20258;-76
2022/03/26 01:56:44;;;;;;;21.50;10.05;;;;;;;10.48;37.02;98265.81;4944355;28;20199;-76
2022/03/26 01:59:11;;;;;;;20.70;10.52;;;;;;;10.45;37.46;98261.06;4943935;28;20650;-76
2022/03/26 02:01:36;;;;;;;24.02;11.05;;;;;;;10.40;37.73;98257.47;4931768;28;20642;-76
2022/03/26 02:04:03;;;;;;;19.33;9.98;;;;;;;10.52;37.31;98266.19;4959042;28;20173;-76
2022/03/26 02:06:33;;;;;;;18.00;8.88;;;;;;;10.36;37.19;98267.53;4926973;28;20200;-76
2022/03/26 02:09:03;;;;;;;17.88;10.05;;;;;;;10.30;37.75;98265.78;4927679;28;20284;-76
2022/03/26 02:11:33;;;;;;;21.67;10.25;;;;;;;10.27;37.95;98268.81;4945516;28;20188;-76
2022/03/26 02:13:59;;;;;;;20.98;8.90;;;;;;;10.30;37.81;98263.19;4928970;28;20181;-76
2022/03/26 02:16:25;;;;;;;22.30;10.60;;;;;;;10.29;37.92;98258.97;4944834;28;20229;-76
2022/03/26 02:18:52;;;;;;;23.20;11.13;;;;;;;10.25;37.90;98252.63;4948356;28;20029;-76
2022/03/26 02:21:19;;;;;;;19.95;10.00;;;;;;;10.24;37.81;98251.78;4944503;28;20183;-76
2022/03/26 02:23:45;;;;;;;20.13;9.32;;;;;;;10.27;37.85;98256.56;4945930;28;20249;-76
2022/03/26 02:26:13;;;;;;;21.88;9.40;;;;;;;10.19;37.81;98261.25;4946378;28;20174;-76
2022/03/26 02:28:39;;;;;;;21.05;9.13;;;;;;;10.22;38.12;98259.03;4927376;28;20170;-76
2022/03/26 02:31:04;;;;;;;22.65;9.27;;;;;;;10.22;37.75;98259.03;4946861;28;20207;-76
2022/03/26 02:33:29;;;;;;;19.10;9.65;;;;;;;10.18;38.00;98260.47;4945165;28;20179;-76
2022/03/26 02:35:55;;;;;;;18.55;10.23;;;;;;;10.10;37.85;98258.16;4945228;28;20676;-76
2022/03/26 02:38:23;;;;;;;22.67;9.43;;;;;;;10.08;38.21;98262.78;4928529;28;20290;-76
2022/03/26 02:40:51;;;;;;;20.75;10.20;;;;;;;10.02;38.62;98258.41;4946663;28;20417;-76
2022/03/26 02:43:16;;;;;;;19.15;10.10;;;;;;;9.94;38.83;98262.88;4944352;28;20193;-76
2022/03/26 02:45:45;;;;;;;18.63;9.48;;;;;;;9.75;38.77;98261.25;4944686;28;20263;-76
2022/03/26 02:48:12;;;;;;;21.35;9.55;;;;;;;9.84;38.89;98262.56;4942217;28;20204;-77
2022/03/26 02:50:42;;;;;;;20.10;9.25;;;;;;;9.56;39.49;98255.97;4923548;28;20191;-77
2022/03/26 02:53:07;;;;;;;19.15;9.13;;;;;;;9.66;39.14;98255.47;4944804;28;20712;-76
2022/03/26 02:55:34;;;;;;;19.80;10.00;;;;;;;9.68;39.64;98263.06;4944762;28;20239;-77
2022/03/26 02:58:00;;;;;;;21.20;10.80;;;;;;;9.50;39.43;98264.59;4924028;28;20246;-76
2022/03/26 03:00:25;;;;;;;19.63;9.45;;;;;;;9.57;39.60;98256.75;4945151;28;20195;-77
2022/03/26 03:02:51;;;;;;;18.40;9.68;;;;;;;9.59;39.18;98253.94;4928845;28;20286;-77
2022/03/26 03:05:16;;;;;;;21.75;9.55;;;;;;;9.48;39.28;98252.84;4944962;28;20198;-76
2022/03/26 03:07:41;;;;;;;19.52;9.32;;;;;;;9.53;39.18;98258.97;4946466;28;20199;-76
2022/03/26 03:10:07;;;;;;;19.67;9.63;;;;;;;9.57;39.25;98251.56;4944421;28;20247;-76
2022/03/26 03:12:33;;;;;;;18.65;9.00;;;;;;;9.68;39.27;98257.88;4946161;28;20289;-76
2022/03/26 03:14:59;;;;;;;23.38;10.60;;;;;;;9.71;39.21;98257.47;4944198;28;20362;-76
2022/03/26 03:17:24;;;;;;;22.83;10.50;;;;;;;9.80;38.70;98258.00;4944064;28;20273;-76
2022/03/26 03:19:49;;;;;;;20.45;10.18;;;;;;;9.81;38.53;98249.19;4942374;28;20199;-76
2022/03/26 03:22:16;;;;;;;20.35;9.43;;;;;;;9.87;38.71;98248.31;4960805;28;20203;-76
2022/03/26 03:24:44;;;;;;;21.17;9.60;;;;;;;9.81;38.53;98244.00;4943892;28;20168;-76
2022/03/26 03:27:10;;;;;;;22.40;10.48;;;;;;;9.94;38.38;98243.88;4942371;28;20704;-76
2022/03/26 03:29:35;;;;;;;29.27;11.45;;;;;;;9.99;38.21;98244.03;4943761;28;20190;-75
2022/03/26 03:32:01;;;;;;;20.55;10.00;;;;;;;9.91;38.35;98241.69;4945946;28;20196;-76
2022/03/26 03:34:26;;;;;;;23.10;10.05;;;;;;;9.85;38.53;98237.34;4944353;28;20259;-76
2022/03/26 03:36:52;;;;;;;26.83;13.15;;;;;;;9.84;38.57;98233.94;4944076;28;20270;-76
2022/03/26 03:39:17;;;;;;;19.92;10.93;;;;;;;9.78;38.76;98231.41;4944350;28;20192;-76
2022/03/26 03:41:42;;;;;;;19.30;10.15;;;;;;;9.78;39.39;98231.41;4943972;28;20634;-76
2022/03/26 03:44:10;;;;;;;23.58;9.80;;;;;;;9.63;38.99;98232.53;4944390;28;20777;-75
2022/03/26 03:46:35;;;;;;;19.17;9.43;;;;;;;9.61;39.35;98231.13;4945914;28;20590;-76
2022/03/26 03:49:01;;;;;;;20.70;9.18;;;;;;;9.66;39.76;98233.91;4943824;28;20203;-76
2022/03/26 03:51:26;;;;;;;19.75;9.40;;;;;;;9.68;39.25;98234.47;4954463;28;20208;-76
2022/03/26 03:53:52;;;;;;;20.08;9.50;;;;;;;9.66;39.49;98236.50;4945523;28;20195;-76
2022/03/26 03:56:17;;;;;;;22.05;10.50;;;;;;;9.70;39.72;98230.66;4926677;28;20227;-76
2022/03/26 03:58:43;;;;;;;22.50;9.93;;;;;;;9.69;39.31;98226.47;4943873;28;20661;-76
2022/03/26 04:01:08;;;;;;;20.95;10.48;;;;;;;9.66;39.55;98231.28;4924796;28;20466;-76
2022/03/26 04:03:33;;;;;;;22.05;9.63;;;;;;;9.57;39.91;98218.53;4930962;28;20370;-78
2022/03/26 04:05:59;;;;;;;18.38;9.75;;;;;;;9.56;39.78;98219.56;4932992;28;20107;-79
2022/03/26 04:08:25;;;;;;;21.90;10.25;;;;;;;9.55;39.45;98230.97;4946568;28;20203;-79
2022/03/26 04:10:50;;;;;;;21.98;10.07;;;;;;;9.42;39.90;98227.66;4945856;28;20249;-76
2022/03/26 04:13:15;;;;;;;22.73;10.68;;;;;;;9.34;40.08;98229.53;4930582;28;20277;-76
2022/03/26 04:15:41;;;;;;;21.63;10.40;;;;;;;9.26;40.60;98221.97;4945855;28;20334;-76
2022/03/26 04:18:06;;;;;;;19.95;9.90;;;;;;;9.18;40.58;98233.41;4943866;28;20188;-76
2022/03/26 04:20:33;;;;;;;25.20;11.05;;;;;;;9.18;40.25;98228.22;4942934;28;20203;-76
2022/03/26 04:22:58;;;;;;;19.83;9.48;;;;;;;9.06;40.55;98229.88;4959929;28;20250;-76
2022/03/26 04:25:24;;;;;;;22.98;9.77;;;;;;;9.09;40.57;98233.88;4942225;28;20282;-76
2022/03/26 04:27:49;;;;;;;22.75;9.63;;;;;;;9.03;40.72;98239.88;4945654;28;20254;-77
2022/03/26 04:30:15;;;;;;;19.33;9.73;;;;;;;9.07;40.60;98238.47;4944178;28;20369;-77
2022/03/26 04:32:40;;;;;;;20.00;10.15;;;;;;;9.00;40.60;98231.50;4908811;28;20177;-77
2022/03/26 04:35:06;;;;;;;22.92;10.45;;;;;;;9.12;40.34;98244.63;4911109;28;20204;-77
2022/03/26 04:37:34;;;;;;;22.98;9.77;;;;;;;8.89;41.03;98239.94;4945490;28;20288;-77
2022/03/26 04:39:59;;;;;;;19.95;9.65;;;;;;;8.92;40.71;98239.53;4931625;28;20638;-76
2022/03/26 04:42:24;;;;;;;19.65;9.07;;;;;;;8.90;41.22;98231.16;4934766;28;20258;-76
2022/03/26 04:44:50;;;;;;;23.23;9.60;;;;;;;8.96;40.95;98235.53;4946609;28;20547;-77
2022/03/26 04:47:15;;;;;;;20.48;9.50;;;;;;;8.84;41.21;98241.56;4947689;28;20208;-77
2022/03/26 04:49:41;;;;;;;25.17;10.40;;;;;;;8.77;40.80;98252.78;4948037;28;20269;-76
2022/03/26 04:52:07;;;;;;;17.40;9.55;;;;;;;8.85;40.87;98250.97;4926281;28;20328;-76
2022/03/26 04:54:32;;;;;;;22.38;10.55;;;;;;;8.94;41.21;98249.72;4934249;28;20689;-76
2022/03/26 04:56:58;;;;;;;19.55;9.98;;;;;;;8.92;41.14;98246.53;4947220;28;20427;-76
2022/03/26 04:59:23;;;;;;;22.63;10.07;;;;;;;8.99;40.89;98248.09;4947183;28;20218;-76
2022/03/26 05:01:48;;;;;;;21.98;10.38;;;;;;;9.09;40.66;98254.66;4918399;28;20360;-77
2022/03/26 05:04:14;;;;;;;23.05;10.13;;;;;;;8.86;40.86;98250.75;4947492;28;20235;-76
2022/03/26 05:06:40;;;;;;;21.63;10.13;;;;;;;8.68;41.38;98250.63;4947338;28;20165;-76
2022/03/26 05:09:05;;;;;;;23.30;9.90;;;;;;;8.56;42.01;98250.47;4946777;28;20315;-76
2022/03/26 05:11:31;;;;;;;24.65;10.77;;;;;;;8.59;41.58;98257.84;4927635;28;20195;-76
2022/03/26 05:13:57;;;;;;;19.90;9.38;;;;;;;8.41;42.27;98267.03;4947005;28;20623;-76
2022/03/26 05:16:23;;;;;;;23.00;9.90;;;;;;;8.27;42.71;98257.69;4948967;28;20192;-76
2022/03/26 05:18:48;;;;;;;21.70;10.25;;;;;;;8.36;42.71;98258.25;4946902;28;20192;-76
2022/03/26 05:21:14;;;;;;;20.25;9.43;;;;;;;8.11;42.76;98263.31;4945923;28;20211;-75
2022/03/26 05:23:39;;;;;;;23.52;10.23;;;;;;;8.21;43.10;98253.31;4948396;28;20207;-76
2022/03/26 05:26:04;;;;;;;20.83;10.32;;;;;;;8.20;42.52;98254.31;4946906;28;20262;-76
2022/03/26 05:28:30;;;;;;;23.55;10.98;;;;;;;8.23;42.52;98256.50;4946769;28;20436;-76
2022/03/26 05:30:56;;;;;;;22.33;10.55;;;;;;;8.27;42.43;98259.47;4945289;28;20196;-76
2022/03/26 05:33:21;;;;;;;24.05;10.20;;;;;;;8.52;41.82;98267.47;4944041;28;20278;-77
2022/03/26 05:35:47;;;;;;;23.30;9.77;;;;;;;8.56;42.10;98272.00;4946751;28;20230;-76
2022/03/26 05:38:12;;;;;;;24.23;10.63;;;;;;;8.61;42.14;98269.59;4946134;28;20191;-75
2022/03/26 05:40:38;;;;;;;22.33;9.85;;;;;;;8.72;41.62;98275.97;4948481;28;20154;-75
2022/03/26 05:43:03;;;;;;;22.23;9.60;;;;;;;8.71;41.49;98273.59;4946366;28;20728;-76
2022/03/26 05:45:30;;;;;;;23.20;10.82;;;;;;;9.12;41.32;98283.59;4946088;28;20269;-76
2022/03/26 05:47:57;;;;;;;20.83;9.95;;;;;;;8.93;41.35;98287.09;4930085;28;20282;-76
2022/03/26 05:50:22;;;;;;;24.05;10.63;;;;;;;9.05;41.02;98289.81;4928621;28;20275;-76
2022/03/26 05:52:48;;;;;;;23.17;11.63;;;;;;;9.30;40.46;98297.72;4912496;28;20190;-76
2022/03/26 05:55:13;;;;;;;21.70;10.02;;;;;;;9.42;40.79;98300.44;4910635;28;20166;-76
2022/03/26 05:57:38;;;;;;;21.48;10.10;;;;;;;9.48;40.61;98300.41;4945778;28;20211;-76
2022/03/26 06:00:05;;;;;;;20.95;9.45;;;;;;;9.30;40.93;98293.28;4929891;28;20242;-76
2022/03/26 06:02:31;;;;;;;21.83;10.38;;;;;;;9.37;40.79;98298.47;4947645;28;20287;-76
2022/03/26 06:04:56;;;;;;;23.48;10.48;;;;;;;9.26;40.87;98299.13;4929410;28;20259;-75
2022/03/26 06:07:22;;;;;;;21.55;10.95;;;;;;;9.29;41.21;98302.13;4946776;28;20263;-76
2022/03/26 06:09:47;;;;;;;23.15;9.60;;;;;;;9.14;41.11;98309.38;4929350;28;20748;-79
2022/03/26 06:12:12;;;;;;;21.88;10.32;;;;;;;9.18;41.27;98305.34;4962301;28;20283;-76
2022/03/26 06:14:38;;;;;;;21.30;10.30;;;;;;;9.25;41.05;98311.31;4945387;28;20752;-76
2022/03/26 06:17:03;;;;;;;22.10;10.30;;;;;;;9.39;40.97;98309.47;4943469;28;20231;-76
2022/03/26 06:19:29;;;;;;;24.17;10.90;;;;;;;9.43;40.87;98300.25;4945070;28;20666;-76
2022/03/26 06:21:54;;;;;;;22.67;11.25;;;;;;;9.40;40.81;98310.25;4955154;28;20282;-76
2022/03/26 06:24:20;;;;;;;22.77;9.98;;;;;;;9.51;40.49;98310.41;4944684;28;20191;-76
2022/03/26 06:26:47;;;;;;;23.95;10.15;;;;;;;9.71;40.65;98309.47;4945099;28;20195;-75
2022/03/26 06:29:13;;;;;;;20.45;10.27;;;;;;;9.89;40.20;98316.56;4945917;28;20168;-76
2022/03/26 06:31:39;;;;;;;21.27;11.18;;;;;;;9.75;40.11;98316.66;4944873;28;20266;-77
2022/03/26 06:34:04;;;;;;;23.10;10.55;;;;;;;9.79;40.38;98319.63;4946719;28;20274;-77
2022/03/26 06:36:30;;;;;;;21.83;10.93;;;;;;;9.92;39.91;98322.13;4947191;28;20239;-77
2022/03/26 06:38:56;;;;;;;20.80;10.85;;;;;;;9.87;40.03;98314.16;4945398;28;20277;-76
2022/03/26 06:41:21;;;;;;;21.67;10.25;;;;;;;9.88;40.03;98314.97;4947341;28;20118;-77
2022/03/26 06:43:46;;;;;;;21.58;10.02;;;;;;;10.08;40.08;98320.81;4929109;28;20303;-76
2022/03/26 06:46:12;;;;;;;24.88;10.10;;;;;;;10.27;39.60;98316.44;4929243;28;20711;-76
2022/03/26 06:48:38;;;;;;;22.10;10.82;;;;;;;10.47;39.43;98310.31;4946836;28;20707;-76
2022/03/26 06:51:04;;;;;;;21.95;10.18;;;;;;;10.42;39.40;98316.16;4940980;28;20626;-76
2022/03/26 06:53:31;;;;;;;22.98;10.68;;;;;;;10.39;39.60;98318.38;4910344;28;20275;-76
2022/03/26 06:55:56;;;;;;;23.52;10.45;;;;;;;10.53;39.30;98319.84;4944832;28;20183;-76
2022/03/26 06:58:23;;;;;;;24.48;11.57;;;;;;;10.82;39.44;98327.97;4944307;28;20211;-77
2022/03/26 07:00:49;;;;;;;21.55;10.45;;;;;;;10.89;39.31;98326.09;4945060;28;20670;-76
2022/03/26 07:03:14;;;;;;;24.63;11.32;;;;;;;10.79;38.87;98331.00;4945319;28;20279;-77
2022/03/26 07:05:40;;;;;;;25.85;11.98;;;;;;;10.67;39.07;98329.09;4947149;28;20199;-77
2022/03/26 07:08:06;;;;;;;22.10;10.93;;;;;;;11.00;38.61;98338.41;4944365;28;20279;-76
2022/03/26 07:10:31;;;;;;;22.48;10.30;;;;;;;11.24;38.45;98330.69;4940557;28;20278;-76
2022/03/26 07:12:57;;;;;;;21.67;11.43;;;;;;;11.09;38.69;98322.44;4945050;28;20649;-76
2022/03/26 07:15:22;;;;;;;27.40;12.77;;;;;;;11.06;38.84;98326.31;4944461;28;20633;-76
2022/03/26 07:17:47;;;;;;;19.90;10.40;;;;;;;11.34;37.96;98323.13;4911962;28;20298;-76
2022/03/26 07:20:14;;;;;;;21.83;10.95;;;;;;;11.44;37.96;98323.41;4958435;28;20126;-77
2022/03/26 07:22:40;;;;;;;22.48;10.60;;;;;;;11.66;37.54;98335.16;4945047;28;20789;-76
2022/03/26 07:25:07;;;;;;;25.52;11.27;;;;;;;11.43;37.76;98327.03;4944538;28;20246;-76
2022/03/26 07:27:33;;;;;;;21.92;11.52;;;;;;;11.73;38.03;98331.44;4944427;28;20208;-76
2022/03/26 07:29:58;;;;;;;23.67;10.95;;;;;;;11.87;37.18;98339.88;4944674;28;20350;-76
2022/03/26 07:32:25;;;;;;;22.73;10.32;;;;;;;12.03;37.08;98333.25;4931359;28;20399;-75
2022/03/26 07:34:51;;;;;;;23.50;11.48;;;;;;;12.61;36.95;98336.09;4944106;28;20168;-76
2022/03/26 07:37:17;;;;;;;25.35;12.13;;;;;;;12.68;35.67;98334.16;4943631;28;20122;-76
2022/03/26 07:39:42;;;;;;;20.35;11.30;;;;;;;12.94;35.92;98330.28;4944288;28;20211;-75
2022/03/26 07:42:07;;;;;;;20.02;10.15;;;;;;;12.83;35.51;98339.69;4944150;28;20161;-76
2022/03/26 07:44:33;;;;;;;22.45;11.45;;;;;;;12.66;35.83;98341.44;4927152;28;20292;-79
2022/03/26 07:46:59;;;;;;;22.77;12.18;;;;;;;12.93;35.80;98342.53;4944841;28;20662;-79
2022/03/26 07:49:24;;;;;;;21.67;11.40;;;;;;;13.14;35.66;98340.31;4931531;28;20211;-76
2022/03/26 07:51:50;;;;;;;19.67;11.10;;;;;;;13.34;35.04;98344.41;4940624;28;20218;-75
2022/03/26 07:54:15;;;;;;;23.90;11.55;;;;;;;13.51;35.10;98344.44;4931017;28;20176;-75
2022/03/26 07:56:41;;;;;;;21.90;10.52;;;;;;;13.80;34.03;98347.84;4939410;28;20315;-76
2022/03/26 07:59:06;;;;;;;22.88;10.45;;;;;;;13.84;34.51;98339.25;4959277;28;20250;-75
2022/03/26 08:01:32;;;;;;;22.85;11.77;;;;;;;13.78;33.95;98344.66;4944387;28;20195;-75
2022/03/26 08:03:57;;;;;;;23.05;11.50;;;;;;;13.83;34.00;98347.38;4944069;28;20161;-76
2022/03/26 08:06:23;;;;;;;22.00;11.63;;;;;;;13.84;33.90;98351.56;4943987;28;20114;-77
2022/03/26 08:08:49;;;;;;;22.23;11.90;;;;;;;14.07;33.92;98353.25;4943780;28;20270;-76
2022/03/26 08:11:14;;;;;;;19.17;10.63;;;;;;;14.41;33.45;98348.81;4944106;28;20262;-75
2022/03/26 08:13:39;;;;;;;22.77;10.98;;;;;;;14.31;33.73;98347.84;4945429;28;20367;-76
2022/03/26 08:16:07;;;;;;;23.90;10.88;;;;;;;14.27;33.34;98357.22;4926576;28;20222;-76
2022/03/26 08:18:33;;;;;;;20.25;10.73;;;;;;;14.01;33.58;98357.59;4944123;28;20255;-77
2022/03/26 08:20:58;;;;;;;24.02;12.02;;;;;;;14.45;33.27;98349.13;4908787;28;20279;-76
2022/03/26 08:23:23;;;;;;;22.17;11.60;;;;;;;14.85;33.05;98353.34;4941017;28;20700;-76
2022/03/26 08:28:33;;;;;;;19.88;10.48;;;;;;;14.96;31.78;98356.91;4943657;28;20250;-76
2022/03/26 08:30:58;;;;;;;21.30;12.18;;;;;;;15.17;32.74;98356.09;4932571;28;20274;-77
2022/03/26 08:33:23;;;;;;;21.63;11.23;;;;;;;15.50;32.06;98359.59;4958204;28;20290;-76
2022/03/26 08:35:49;;;;;;;23.27;12.13;;;;;;;15.23;31.92;98364.03;4943722;28;20755;-77
2022/03/26 08:38:14;;;;;;;19.08;10.82;;;;;;;15.41;32.00;98363.72;4944076;28;20343;-76
2022/03/26 08:40:40;;;;;;;24.50;11.48;;;;;;;15.59;31.58;98361.78;4943583;28;20253;-76
2022/03/26 08:43:06;;;;;;;19.17;12.18;;;;;;;15.79;31.38;98358.63;4940667;28;20192;-75
2022/03/26 08:45:31;;;;;;;21.25;11.85;;;;;;;15.88;30.94;98363.16;4939223;28;20203;-77
2022/03/26 08:47:57;;;;;;;21.38;11.98;;;;;;;16.01;30.85;98358.53;4938842;28;20244;-76
2022/03/26 08:50:23;;;;;;;22.05;12.10;;;;;;;16.34;30.80;98375.88;4957679;28;20203;-76
2022/03/26 08:52:49;;;;;;;20.25;11.43;;;;;;;16.64;30.61;98371.88;4925393;28;20273;-76
2022/03/26 08:55:18;;;;;;;21.70;11.35;;;;;;;16.87;30.27;98368.06;4943315;28;20720;-76
2022/03/26 08:57:44;;;;;;;19.10;11.32;;;;;;;16.99;29.47;98365.25;4911316;28;20161;-76
2022/03/26 09:00:10;;;;;;;23.15;12.48;;;;;;;16.84;29.65;98361.50;4941675;28;20259;-76
2022/03/26 09:02:37;;;;;;;20.73;12.05;;;;;;;17.27;29.27;98361.38;4944508;28;20186;-76
2022/03/26 09:05:04;;;;;;;20.23;11.82;;;;;;;17.08;29.46;98365.53;4927362;28;20327;-76
2022/03/26 09:07:29;;;;;;;23.10;12.50;;;;;;;17.52;29.66;98362.53;4944663;28;20334;-76
2022/03/26 09:09:55;;;;;;;21.73;12.35;;;;;;;17.54;29.13;98363.06;4930650;28;20284;-76
2022/03/26 09:12:20;;;;;;;22.40;12.40;;;;;;;17.41;28.67;98365.13;4930679;28;20205;-76
2022/03/26 09:14:45;;;;;;;23.13;12.68;;;;;;;17.87;28.43;98368.91;4960041;28;20281;-76
2022/03/26 09:17:11;;;;;;;25.75;12.05;;;;;;;18.05;28.37;98367.63;4931600;28;20274;-77
2022/03/26 09:19:36;;;;;;;25.95;13.52;;;;;;;17.72;28.20;98370.47;4908095;28;20103;-76
2022/03/26 09:22:02;;;;;;;28.08;15.85;;;;;;;17.25;28.23;98355.59;4925782;28;20162;-75
2022/03/26 09:24:28;;;;;;;21.88;12.75;;;;;;;17.32;28.67;98363.25;4947015;28;20379;-76
2022/03/26 09:26:53;;;;;;;23.85;12.60;;;;;;;17.67;28.73;98362.56;4912490;28;20778;-76
2022/03/26 09:29:19;;;;;;;21.25;12.98;;;;;;;17.82;28.00;98363.63;4929609;28;20373;-76
2022/03/26 09:31:44;;;;;;;24.45;12.93;;;;;;;18.28;28.48;98368.94;4941121;28;20591;-77
2022/03/26 09:34:09;;;;;;;22.02;12.05;;;;;;;17.89;27.68;98366.81;4943814;28;20193;-78
2022/03/26 09:36:35;;;;;;;23.58;12.75;;;;;;;18.36;27.96;98368.41;4927391;28;20204;-77
2022/03/26 09:39:00;;;;;;;24.85;11.65;;;;;;;18.49;27.51;98367.84;4929624;28;20182;-76
2022/03/26 09:41:27;;;;;;;24.45;13.20;;;;;;;18.26;27.91;98371.03;4945871;28;20199;-76
2022/03/26 09:43:54;;;;;;;22.13;13.25;;;;;;;18.24;27.29;98370.53;4940897;28;20627;-76
2022/03/26 09:46:20;;;;;;;20.73;13.05;;;;;;;18.30;27.45;98378.16;4946711;28;20578;-77
2022/03/26 09:48:45;;;;;;;21.27;13.30;;;;;;;18.39;27.34;98367.88;4946631;28;20199;-76
2022/03/26 09:51:18;;;;;;;24.88;13.82;;;;;;;18.29;27.24;98373.16;4940766;28;20271;-76
2022/03/26 09:53:44;;;;;;;23.63;13.88;;;;;;;18.65;27.12;98378.38;4932290;28;20386;-77
2022/03/26 09:56:10;;;;;;;23.45;14.18;;;;;;;19.03;27.89;98381.47;4946675;28;20191;-77
2022/03/26 09:58:36;;;;;;;22.70;13.30;;;;;;;19.03;26.73;98376.19;4917370;28;20204;-76
2022/03/26 10:01:01;;;;;;;24.13;13.18;;;;;;;19.07;26.84;98371.94;4946251;28;20203;-77
2022/03/26 10:03:26;;;;;;;24.20;14.00;;;;;;;19.40;25.94;98380.28;4913130;28;20431;-77
2022/03/26 10:06:03;;;;;;;23.00;13.43;;;;;;;19.51;26.98;98375.72;4946313;28;20357;-77
2022/03/26 10:08:28;;;;;;;22.60;14.40;;;;;;;19.45;26.21;98367.03;4946416;28;20223;-76
2022/03/26 10:10:54;;;;;;;22.10;13.23;;;;;;;19.50;26.59;98367.00;4946079;28;20536;-76
2022/03/26 10:13:40;;;;;;;25.20;14.65;;;;;;;19.64;26.56;98375.13;4947619;28;20669;-76
2022/03/26 10:16:13;;;;;;;23.60;14.27;;;;;;;19.41;26.30;98377.31;4945755;28;20622;-76
2022/03/26 10:18:48;;;;;;;22.80;13.07;;;;;;;19.71;26.41;98375.59;4945470;28;20376;-75
2022/03/26 10:21:15;;;;;;;26.65;14.88;;;;;;;19.68;26.75;98372.72;4926592;28;20596;-77
2022/03/26 10:23:46;;;;;;;23.65;14.25;;;;;;;19.27;26.48;98366.56;4941417;28;20571;-76
2022/03/26 10:26:16;;;;;;;25.35;14.43;;;;;;;19.61;26.15;98365.88;4946223;28;20278;-76
2022/03/26 10:28:43;;;;;;;24.65;14.23;;;;;;;20.18;26.52;98360.19;4945539;28;20220;-75
2022/03/26 10:34:09;;;;;;;22.92;13.52;;;;;;;20.73;25.41;98352.81;4940748;28;20716;-76
2022/03/26 10:36:36;;;;;;;23.40;13.98;;;;;;;20.72;25.27;98348.59;4945113;28;20261;-76
2022/03/26 10:39:02;;;;;;;23.40;14.75;;;;;;;20.42;25.66;98357.59;4916112;28;20234;-75
2022/03/26 10:41:31;;;;;;;22.00;13.68;;;;;;;20.25;25.17;98363.31;4929282;28;20294;-77
2022/03/26 10:44:12;;;;;;;24.33;14.43;;;;;;;19.86;25.77;98360.72;4945429;28;20172;-76
2022/03/26 10:46:48;;;;;;;25.30;15.15;;;;;;;20.50;25.80;98358.84;4940354;28;20243;-75
2022/03/26 10:49:24;;;;;;;27.42;15.15;;;;;;;20.75;25.33;98355.97;4945559;28;20641;-76
2022/03/26 10:51:49;;;;;;;22.95;13.55;;;;;;;20.92;25.28;98352.88;4915961;28;20167;-77
2022/03/26 10:54:16;;;;;;;23.98;14.82;;;;;;;20.15;25.52;98352.81;4945832;28;20284;-76
2022/03/26 10:56:42;;;;;;;21.92;14.48;;;;;;;20.24;25.43;98348.53;4928787;28;20169;-76
2022/03/26 10:59:07;;;;;;;26.60;15.80;;;;;;;20.06;25.51;98347.34;4945312;28;20357;-76
2022/03/26 11:01:34;;;;;;;23.50;15.57;;;;;;;20.88;25.35;98351.06;4945790;28;20609;-76
2022/03/26 11:04:00;;;;;;;27.85;16.17;;;;;;;21.80;23.61;98347.22;4939116;28;20351;-76
2022/03/26 11:06:26;;;;;;;22.10;14.75;;;;;;;21.94;23.75;98341.94;4925542;28;20354;-76
2022/03/26 11:08:59;;;;;;;23.58;14.55;;;;;;;22.02;23.65;98349.25;4938764;28;20193;-76
2022/03/26 11:11:26;;;;;;;26.58;15.55;;;;;;;20.91;24.45;98347.84;4939528;28;20697;-76
2022/03/26 11:13:53;;;;;;;27.67;16.33;;;;;;;21.41;23.29;98334.25;4944988;28;20265;-76
2022/03/26 11:16:39;;;;;;;26.38;16.35;;;;;;;21.06;24.57;98346.88;4916421;28;20364;-76
2022/03/26 11:19:19;;;;;;;23.10;15.23;;;;;;;20.87;24.46;98344.19;4938163;28;20679;-76
2022/03/26 11:22:00;;;;;;;24.02;15.50;;;;;;;21.84;22.95;98342.13;4957258;28;20682;-77